Time;durP1;ratioP1;P1;durP2;ratioP2;P2;SDS_P1;SDS_P2;PMS_P1;PMS_P2;Temp;Humidity;BMP_temperature;BMP_pressure;BME280_temperature;BME280_humidity;BME280_pressure;Samples;Min_cycle;Max_cycle;Signal;HPM_P1;HPM_P2
2023/02/03 00:01:00;;;;;;;16.95;10.48;;;8.80;96.70;;;;;;4971594;28;20051;-72
2023/02/03 00:03:28;;;;;;;15.93;11.77;;;8.80;96.70;;;;;;4972587;28;20058;-73
2023/02/03 00:05:56;;;;;;;18.05;11.57;;;8.70;96.70;;;;;;4973950;28;20112;-72
2023/02/03 00:08:24;;;;;;;16.17;11.75;;;8.80;96.70;;;;;;4974858;28;20093;-72
2023/02/03 00:10:53;;;;;;;19.90;11.93;;;8.80;96.70;;;;;;4974412;28;20493;-73
2023/02/03 00:13:21;;;;;;;15.20;11.38;;;8.80;96.70;;;;;;4976202;28;20046;-72
2023/02/03 00:15:51;;;;;;;17.30;11.20;;;8.80;96.70;;;;;;4979235;28;20059;-73
2023/02/03 00:18:19;;;;;;;17.30;10.55;;;8.70;96.70;;;;;;4976822;28;20511;-72
2023/02/03 00:20:47;;;;;;;15.55;10.23;;;8.70;96.70;;;;;;4980356;28;20049;-72
2023/02/03 00:23:15;;;;;;;13.20;9.40;;;8.70;96.70;;;;;;4976155;28;20406;-72
2023/02/03 00:25:43;;;;;;;14.43;9.75;;;8.70;96.70;;;;;;4974746;28;20047;-73
2023/02/03 00:28:11;;;;;;;15.45;9.25;;;8.70;96.70;;;;;;4977057;28;20059;-73
2023/02/03 00:30:39;;;;;;;15.30;9.45;;;8.70;96.70;;;;;;4979519;28;20054;-73
2023/02/03 00:33:08;;;;;;;15.63;10.10;;;8.70;96.70;;;;;;4974054;28;20043;-73
2023/02/03 00:35:38;;;;;;;13.40;9.43;;;8.70;96.70;;;;;;4976852;28;20042;-73
2023/02/03 00:38:06;;;;;;;15.35;9.70;;;8.70;96.70;;;;;;4981221;28;20065;-72
2023/02/03 00:40:34;;;;;;;13.77;9.43;;;8.70;96.70;;;;;;4981039;28;20162;-72
2023/02/03 00:43:02;;;;;;;16.02;10.05;;;8.70;96.70;;;;;;4979808;28;20039;-73
2023/02/03 00:45:31;;;;;;;13.30;8.90;;;8.70;96.70;;;;;;4975248;28;20111;-73
2023/02/03 00:47:59;;;;;;;13.25;9.85;;;8.70;96.70;;;;;;4979476;28;20073;-73
2023/02/03 00:50:29;;;;;;;12.60;9.05;;;8.70;96.70;;;;;;4966588;28;20049;-73
2023/02/03 00:52:57;;;;;;;13.32;9.20;;;8.70;96.70;;;;;;4982165;28;20505;-73
2023/02/03 00:55:25;;;;;;;15.05;9.77;;;8.70;96.70;;;;;;4971552;28;20141;-73
2023/02/03 00:57:53;;;;;;;14.27;9.30;;;8.80;96.70;;;;;;4980983;28;20042;-73
2023/02/03 01:00:21;;;;;;;17.48;10.52;;;8.80;96.70;;;;;;4977975;28;20146;-73
2023/02/03 01:02:49;;;;;;;13.80;9.73;;;8.80;96.70;;;;;;4976793;28;20489;-74
2023/02/03 01:05:17;;;;;;;13.90;8.88;;;8.80;96.70;;;;;;4972566;28;20647;-73
2023/02/03 01:07:47;;;;;;;14.77;9.05;;;8.80;96.70;;;;;;4981465;28;20121;-73
2023/02/03 01:10:15;;;;;;;11.82;8.27;;;8.80;96.70;;;;;;4975933;28;20555;-73
2023/02/03 01:12:43;;;;;;;13.40;7.50;;;8.70;96.70;;;;;;4971330;28;20066;-73
2023/02/03 01:15:11;;;;;;;12.00;7.95;;;8.80;96.70;;;;;;4958303;28;20050;-73
2023/02/03 01:17:39;;;;;;;11.75;7.22;;;8.80;96.70;;;;;;4980752;28;20061;-73
2023/02/03 01:20:11;;;;;;;12.93;7.35;;;8.80;96.70;;;;;;4976881;28;20074;-73
2023/02/03 01:22:39;;;;;;;11.25;7.03;;;8.80;96.70;;;;;;4976611;28;20129;-73
2023/02/03 01:25:09;;;;;;;12.10;7.85;;;8.80;96.70;;;;;;4974727;28;20121;-73
2023/02/03 01:27:37;;;;;;;13.48;7.50;;;8.70;96.70;;;;;;4962979;28;20046;-72
2023/02/03 01:30:05;;;;;;;13.55;8.95;;;8.70;96.70;;;;;;4977788;28;20046;-73
2023/02/03 01:32:34;;;;;;;12.45;8.48;;;8.70;96.70;;;;;;4976882;28;20120;-72
2023/02/03 01:35:04;;;;;;;13.23;8.27;;;8.70;96.70;;;;;;4975478;28;20045;-73
2023/02/03 01:37:32;;;;;;;16.38;8.40;;;8.70;96.70;;;;;;4972949;28;20061;-72
2023/02/03 01:40:00;;;;;;;12.77;9.13;;;8.60;96.70;;;;;;4975646;28;20058;-72
2023/02/03 01:42:32;;;;;;;13.18;9.88;;;8.60;96.70;;;;;;4979054;28;20050;-73
2023/02/03 01:45:01;;;;;;;17.13;10.43;;;8.60;96.70;;;;;;4979674;28;20046;-72
2023/02/03 01:47:32;;;;;;;15.30;9.70;;;8.50;96.70;;;;;;4957790;28;20056;-72
2023/02/03 01:50:10;;;;;;;13.77;8.27;;;8.40;96.70;;;;;;4960467;28;20054;-72
2023/02/03 01:52:40;;;;;;;11.50;7.72;;;8.30;96.70;;;;;;4974008;28;20058;-72
2023/02/03 01:55:13;;;;;;;12.30;8.05;;;8.30;96.70;;;;;;4979086;28;20051;-71
2023/02/03 01:57:46;;;;;;;12.18;7.68;;;8.40;96.70;;;;;;4952938;28;20420;-72
2023/02/03 02:00:15;;;;;;;10.55;7.97;;;8.30;96.70;;;;;;4975792;28;20108;-72
2023/02/03 02:02:46;;;;;;;13.05;7.75;;;8.30;96.70;;;;;;4978566;28;20141;-72
2023/02/03 02:05:21;;;;;;;10.65;7.55;;;8.20;96.70;;;;;;4973325;28;20050;-72
2023/02/03 02:07:50;;;;;;;11.32;7.35;;;8.10;96.70;;;;;;4973925;28;20050;-73
2023/02/03 02:10:18;;;;;;;11.13;7.45;;;8.10;96.70;;;;;;4958756;28;20053;-72
2023/02/03 02:12:49;;;;;;;10.18;7.47;;;8.10;96.70;;;;;;4977306;28;20046;-72
2023/02/03 02:15:23;;;;;;;13.32;8.02;;;8.00;96.70;;;;;;4977800;28;20051;-72
2023/02/03 02:18:06;;;;;;;10.60;7.70;;;7.90;96.70;;;;;;4971887;28;20047;-73
2023/02/03 02:21:01;;;;;;;11.65;7.63;;;8.00;96.70;;;;;;4957258;28;20054;-73
2023/02/03 02:23:43;;;;;;;11.88;8.57;;;7.90;96.70;;;;;;4974245;28;20051;-72
2023/02/03 02:26:37;;;;;;;13.85;9.57;;;7.90;96.70;;;;;;4973697;28;20081;-73
2023/02/03 02:29:41;;;;;;;16.02;9.77;;;7.70;96.70;;;;;;4976612;28;20082;-77
2023/02/03 02:32:29;;;;;;;13.57;8.40;;;7.60;96.70;;;;;;4964522;28;20136;-77
2023/02/03 02:35:06;;;;;;;10.82;8.98;;;7.80;96.70;;;;;;4978604;28;20073;-78
2023/02/03 02:37:47;;;;;;;14.57;9.00;;;7.80;96.70;;;;;;4971824;28;20129;-77
2023/02/03 02:40:25;;;;;;;13.32;9.38;;;7.80;96.70;;;;;;4972322;28;20054;-77
2023/02/03 02:43:01;;;;;;;13.68;8.93;;;7.80;96.70;;;;;;4975215;28;20054;-78
2023/02/03 02:45:40;;;;;;;12.07;8.60;;;7.80;96.70;;;;;;4962977;28;20460;-78
2023/02/03 02:48:18;;;;;;;13.25;8.88;;;7.80;96.70;;;;;;4975344;28;20050;-77
2023/02/03 02:50:51;;;;;;;11.65;8.90;;;7.90;96.70;;;;;;4983444;28;20713;-77
2023/02/03 02:53:23;;;;;;;16.33;10.13;;;7.90;96.70;;;;;;4977701;28;20555;-77
2023/02/03 02:55:55;;;;;;;12.38;8.90;;;7.90;96.70;;;;;;4980942;28;20503;-78
2023/02/03 02:58:25;;;;;;;14.40;9.13;;;8.00;96.70;;;;;;4983461;28;20630;-72
2023/02/03 03:00:54;;;;;;;13.50;8.93;;;7.90;96.70;;;;;;4981712;28;20046;-72
2023/02/03 03:03:24;;;;;;;11.15;8.45;;;7.90;96.70;;;;;;4979431;28;20042;-73
2023/02/03 03:05:55;;;;;;;10.02;7.68;;;7.90;96.70;;;;;;4981385;28;20544;-72
2023/02/03 03:08:32;;;;;;;9.90;7.75;;;7.50;96.70;;;;;;4978037;28;20050;-72
2023/02/03 03:11:02;;;;;;;11.55;8.23;;;7.40;96.70;;;;;;4974103;28;20062;-76
2023/02/03 03:13:33;;;;;;;11.90;8.73;;;7.50;96.70;;;;;;4978498;28;20039;-71
2023/02/03 03:16:04;;;;;;;15.65;9.10;;;7.50;96.70;;;;;;4983903;28;20046;-77
2023/02/03 03:18:42;;;;;;;14.40;9.20;;;7.50;96.70;;;;;;4968241;28;20512;-77
2023/02/03 03:21:13;;;;;;;;;;;7.70;96.70;;;;;;4962673;28;20050;-77
2023/02/03 03:23:46;;;;;;;14.55;8.90;;;7.80;96.70;;;;;;4977228;28;20000;-78
2023/02/03 03:26:19;;;;;;;13.68;8.90;;;7.80;96.70;;;;;;4981765;28;20054;-77
2023/02/03 03:28:51;;;;;;;13.43;9.75;;;7.70;96.70;;;;;;4983614;28;20507;-72
2023/02/03 03:31:20;;;;;;;14.85;9.23;;;7.80;96.70;;;;;;4983785;28;20050;-73
2023/02/03 03:33:50;;;;;;;12.32;9.63;;;7.70;96.70;;;;;;4982917;28;20077;-73
2023/02/03 03:36:25;;;;;;;14.20;9.75;;;7.70;96.70;;;;;;4974886;28;20766;-72
2023/02/03 03:38:58;;;;;;;13.43;10.35;;;7.50;96.70;;;;;;4981690;28;20428;-72
2023/02/03 03:41:35;;;;;;;13.07;10.15;;;7.50;96.70;;;;;;4974589;28;20042;-73
2023/02/03 03:44:08;;;;;;;15.40;10.82;;;7.70;96.70;;;;;;4983626;28;20463;-72
2023/02/03 03:46:42;;;;;;;18.88;10.82;;;7.80;96.70;;;;;;4979196;28;20042;-72
2023/02/03 03:49:14;;;;;;;13.98;9.90;;;7.80;96.70;;;;;;4985089;28;20050;-72
2023/02/03 03:51:46;;;;;;;16.40;11.00;;;7.70;96.70;;;;;;4983099;28;20496;-73
2023/02/03 03:54:19;;;;;;;16.35;10.30;;;7.60;96.70;;;;;;4984898;28;20051;-72
2023/02/03 03:56:57;;;;;;;14.05;9.60;;;7.50;96.70;;;;;;4986713;28;20080;-72
2023/02/03 03:59:29;;;;;;;15.13;9.73;;;7.60;96.70;;;;;;4985871;28;20054;-77
2023/02/03 04:02:03;;;;;;;14.35;9.95;;;7.70;96.70;;;;;;4985551;28;20473;-77
2023/02/03 04:04:36;;;;;;;12.63;10.10;;;7.80;96.70;;;;;;4994913;28;20614;-77
2023/02/03 04:07:04;;;;;;;15.20;10.35;;;7.80;96.70;;;;;;4974426;28;20051;-78
2023/02/03 04:09:35;;;;;;;15.35;10.45;;;7.80;96.70;;;;;;4976515;28;20035;-78
2023/02/03 04:12:05;;;;;;;14.75;10.25;;;7.80;96.70;;;;;;4975272;28;20129;-77
2023/02/03 04:14:38;;;;;;;14.32;9.73;;;7.90;96.70;;;;;;4976359;28;20113;-77
2023/02/03 04:17:07;;;;;;;16.85;11.25;;;7.90;96.70;;;;;;4976059;28;20615;-77
2023/02/03 04:19:37;;;;;;;15.13;10.35;;;8.00;96.70;;;;;;4977659;28;20045;-77
2023/02/03 04:22:05;;;;;;;13.38;11.02;;;8.00;96.70;;;;;;4974288;28;20482;-77
2023/02/03 04:24:34;;;;;;;14.13;10.98;;;8.00;96.70;;;;;;4980040;28;20760;-78
2023/02/03 04:27:03;;;;;;;11.10;9.77;;;8.00;96.70;;;;;;4976445;28;20054;-78
2023/02/03 04:29:32;;;;;;;15.90;11.23;;;8.10;96.70;;;;;;4981675;28;20060;-72
2023/02/03 04:32:00;;;;;;;16.20;11.05;;;8.10;96.70;;;;;;4986471;28;20117;-72
2023/02/03 04:34:29;;;;;;;15.98;11.05;;;8.10;96.70;;;;;;4965671;28;20061;-72
2023/02/03 04:36:59;;;;;;;17.65;11.50;;;8.10;96.70;;;;;;4976863;28;20401;-73
2023/02/03 04:39:27;;;;;;;17.23;11.55;;;8.10;96.70;;;;;;4954164;28;20116;-72
2023/02/03 04:41:55;;;;;;;14.80;10.77;;;8.10;96.70;;;;;;4996415;28;20461;-72
2023/02/03 04:44:24;;;;;;;10.40;9.23;;;8.10;96.70;;;;;;4976729;28;20630;-73
2023/02/03 04:46:52;;;;;;;13.25;9.75;;;7.90;96.70;;;;;;4972637;28;20097;-73
2023/02/03 04:49:21;;;;;;;14.10;9.77;;;7.80;96.70;;;;;;4973506;28;20057;-72
2023/02/03 04:51:49;;;;;;;13.30;10.35;;;7.70;96.70;;;;;;4978459;28;20144;-72
2023/02/03 04:54:19;;;;;;;13.65;9.15;;;7.80;96.70;;;;;;4991087;28;20116;-72
2023/02/03 04:56:47;;;;;;;14.48;9.98;;;7.90;96.70;;;;;;4975367;28;20488;-72
2023/02/03 04:59:16;;;;;;;12.80;9.85;;;7.90;96.70;;;;;;4984371;28;20046;-72
2023/02/03 05:01:44;;;;;;;13.98;9.20;;;8.00;96.70;;;;;;4984563;28;20050;-73
2023/02/03 05:04:13;;;;;;;11.90;9.13;;;7.80;96.70;;;;;;4985376;28;20046;-72
2023/02/03 05:06:41;;;;;;;13.07;9.95;;;7.70;96.70;;;;;;4983713;28;20059;-71
2023/02/03 05:09:10;;;;;;;15.90;9.50;;;7.80;96.70;;;;;;4984203;28;20050;-77
2023/02/03 05:11:40;;;;;;;12.38;9.65;;;7.80;96.70;;;;;;4975444;28;20066;-77
2023/02/03 05:14:09;;;;;;;12.48;9.25;;;7.70;96.70;;;;;;4976312;28;20053;-77
2023/02/03 05:16:37;;;;;;;15.98;9.38;;;7.80;96.70;;;;;;4976650;28;20034;-77
2023/02/03 05:19:06;;;;;;;12.15;9.02;;;7.90;96.70;;;;;;4971915;28;20031;-78
2023/02/03 05:21:34;;;;;;;14.77;9.68;;;7.90;96.70;;;;;;4969171;28;20046;-77
2023/02/03 05:24:05;;;;;;;10.52;8.50;;;7.90;96.70;;;;;;4973147;28;20047;-77
2023/02/03 05:26:35;;;;;;;16.40;9.18;;;8.00;96.70;;;;;;4957177;28;20169;-77
2023/02/03 05:29:05;;;;;;;13.35;8.65;;;8.10;96.70;;;;;;4980303;28;20169;-77
2023/02/03 05:31:34;;;;;;;13.48;8.75;;;8.10;96.70;;;;;;4979865;28;20038;-77
2023/02/03 05:34:02;;;;;;;13.63;8.85;;;8.10;96.70;;;;;;4984489;28;20615;-77
2023/02/03 05:36:31;;;;;;;10.32;8.23;;;8.10;96.70;;;;;;4983574;28;20522;-77
2023/02/03 05:38:59;;;;;;;13.00;9.25;;;8.20;96.70;;;;;;4985054;28;20580;-72
2023/02/03 05:44:16;;;;;;;13.73;9.98;;;8.10;96.70;;;;;;4984616;28;20528;-73
2023/02/03 05:46:44;;;;;;;11.80;8.68;;;8.10;96.70;;;;;;4981960;28;20054;-72
2023/02/03 05:49:13;;;;;;;12.60;9.77;;;8.10;96.70;;;;;;4982762;28;20050;-73
2023/02/03 05:51:41;;;;;;;13.32;9.15;;;8.10;96.70;;;;;;4983125;28;20788;-72
2023/02/03 05:54:10;;;;;;;12.25;9.57;;;8.20;96.70;;;;;;4978068;28;20065;-72
2023/02/03 05:56:38;;;;;;;11.38;8.68;;;8.20;96.70;;;;;;4980578;28;20042;-72
2023/02/03 05:59:07;;;;;;;12.57;8.60;;;8.10;96.70;;;;;;4982310;28;20133;-77
2023/02/03 06:01:37;;;;;;;15.10;8.63;;;8.00;96.70;;;;;;4975531;28;20552;-77
2023/02/03 06:04:05;;;;;;;12.60;8.23;;;8.10;96.70;;;;;;4984457;28;20073;-76
2023/02/03 06:06:34;;;;;;;10.30;8.27;;;8.10;96.70;;;;;;4982951;28;20062;-77
2023/02/03 06:09:05;;;;;;;13.60;8.77;;;8.10;96.70;;;;;;4983943;28;20661;-72
2023/02/03 06:11:34;;;;;;;13.32;8.38;;;8.10;96.70;;;;;;4981756;28;20046;-77
2023/02/03 06:14:03;;;;;;;12.57;8.80;;;8.10;96.70;;;;;;4977862;28;20369;-77
2023/02/03 06:16:32;;;;;;;12.68;8.45;;;8.10;96.70;;;;;;4982623;28;20064;-77
2023/02/03 06:19:02;;;;;;;11.05;8.70;;;8.20;96.70;;;;;;4983120;28;20406;-77
2023/02/03 06:21:31;;;;;;;10.48;8.85;;;8.20;96.70;;;;;;4976593;28;20521;-77
2023/02/03 06:24:00;;;;;;;11.73;8.70;;;8.20;96.70;;;;;;4972424;28;20113;-77
2023/02/03 06:26:28;;;;;;;13.15;7.93;;;8.20;96.70;;;;;;4958142;28;20046;-77
2023/02/03 06:28:56;;;;;;;13.32;8.45;;;8.00;96.70;;;;;;4970287;28;20532;-77
2023/02/03 06:31:25;;;;;;;12.18;8.98;;;7.90;96.70;;;;;;4978108;28;20061;-77
2023/02/03 06:33:56;;;;;;;11.15;8.20;;;8.00;96.70;;;;;;4984157;28;20046;-76
2023/02/03 06:36:26;;;;;;;13.85;8.43;;;8.00;96.70;;;;;;4980363;28;20050;-77
2023/02/03 06:38:54;;;;;;;12.27;7.70;;;8.00;96.70;;;;;;4977831;28;20121;-76
2023/02/03 06:41:26;;;;;;;11.70;7.95;;;7.90;96.70;;;;;;4974116;28;20051;-77
2023/02/03 06:43:54;;;;;;;9.63;7.68;;;8.00;96.70;;;;;;4957135;28;20047;-77
2023/02/03 06:46:27;;;;;;;11.70;9.25;;;8.10;96.70;;;;;;4976913;28;20101;-77
2023/02/03 06:48:55;;;;;;;12.25;8.77;;;8.10;96.70;;;;;;4968615;28;20081;-78
2023/02/03 06:51:25;;;;;;;13.77;9.70;;;8.10;96.70;;;;;;4979141;28;20077;-76
2023/02/03 06:53:53;;;;;;;13.23;9.60;;;8.00;96.70;;;;;;4978116;28;20053;-75
2023/02/03 06:56:21;;;;;;;13.52;9.38;;;7.90;96.70;;;;;;4957572;28;20034;-75
2023/02/03 06:58:50;;;;;;;15.18;8.77;;;8.00;96.70;;;;;;4975453;28;20046;-75
2023/02/03 07:01:18;;;;;;;13.77;8.95;;;7.90;96.70;;;;;;4982566;28;20038;-71
2023/02/03 07:03:46;;;;;;;18.17;10.00;;;7.80;96.70;;;;;;4982587;28;20499;-71
2023/02/03 07:06:15;;;;;;;14.52;9.35;;;7.80;96.70;;;;;;4982073;28;20066;-71
2023/02/03 07:08:44;;;;;;;14.27;9.77;;;7.90;96.70;;;;;;4982964;28;20092;-71
2023/02/03 07:11:13;;;;;;;19.65;10.40;;;8.00;96.70;;;;;;4982377;28;20054;-76
2023/02/03 07:13:41;;;;;;;14.15;9.68;;;7.90;96.70;;;;;;4983898;28;20050;-75
2023/02/03 07:16:09;;;;;;;15.77;10.25;;;8.00;96.70;;;;;;4983074;28;20042;-76
2023/02/03 07:18:38;;;;;;;16.85;10.10;;;8.10;96.70;;;;;;4982205;28;20042;-76
2023/02/03 07:21:16;;;;;;;17.88;10.27;;;8.10;96.70;;;;;;4976632;28;20042;-76
2023/02/03 07:23:48;;;;;;;18.83;11.10;;;8.10;96.70;;;;;;4975126;28;20062;-78
2023/02/03 07:26:17;;;;;;;18.05;10.75;;;8.20;96.70;;;;;;4975774;28;20102;-75
2023/02/03 07:28:46;;;;;;;22.33;11.70;;;8.20;96.70;;;;;;4976100;28;20050;-72
2023/02/03 07:31:14;;;;;;;18.45;11.32;;;8.20;96.70;;;;;;4979796;28;20046;-71
2023/02/03 07:33:42;;;;;;;21.95;12.18;;;8.20;96.70;;;;;;4983926;28;20127;-72
2023/02/03 07:36:11;;;;;;;20.98;12.73;;;8.30;96.70;;;;;;4985732;28;20065;-72
2023/02/03 07:38:39;;;;;;;19.13;11.75;;;8.40;96.70;;;;;;4978160;28;20744;-72
2023/02/03 07:41:10;;;;;;;19.45;12.52;;;8.40;96.70;;;;;;4989957;28;20050;-77
2023/02/03 07:43:38;;;;;;;20.27;11.57;;;8.50;96.70;;;;;;4978449;28;20070;-72
2023/02/03 07:46:07;;;;;;;21.23;11.95;;;8.50;96.70;;;;;;4987590;28;20125;-73
2023/02/03 07:48:36;;;;;;;16.40;10.50;;;8.50;96.70;;;;;;4997921;28;20550;-76
2023/02/03 07:51:05;;;;;;;18.50;9.90;;;8.60;96.70;;;;;;4983265;28;20042;-71
2023/02/03 07:53:33;;;;;;;14.52;9.25;;;8.60;96.70;;;;;;4984065;28;20133;-72
2023/02/03 07:56:03;;;;;;;16.67;10.05;;;8.60;96.70;;;;;;4978565;28;20488;-72
2023/02/03 07:58:33;;;;;;;19.50;10.05;;;8.70;96.70;;;;;;4985359;28;20046;-74
2023/02/03 08:01:08;;;;;;;17.45;9.32;;;8.80;96.70;;;;;;4979350;28;20050;-72
2023/02/03 08:03:36;;;;;;;14.02;9.13;;;8.90;96.70;;;;;;4968324;28;20050;-72
2023/02/03 08:06:05;;;;;;;12.23;8.88;;;8.90;96.70;;;;;;4980219;28;20051;-73
2023/02/03 08:08:33;;;;;;;13.25;8.52;;;9.00;96.70;;;;;;4978518;28;20548;-74
2023/02/03 08:11:01;;;;;;;11.25;7.72;;;9.00;96.70;;;;;;4979018;28;20497;-73
2023/02/03 08:13:30;;;;;;;15.77;8.32;;;9.00;96.70;;;;;;4984068;28;20038;-72
2023/02/03 08:15:59;;;;;;;11.93;7.13;;;9.00;96.70;;;;;;4977731;28;20058;-71
2023/02/03 08:18:28;;;;;;;13.07;7.97;;;9.10;96.70;;;;;;4986478;28;20039;-70
2023/02/03 08:20:59;;;;;;;13.02;7.93;;;9.10;96.70;;;;;;4983664;28;20093;-71
2023/02/03 08:23:27;;;;;;;10.75;7.32;;;9.20;96.70;;;;;;4979384;28;20050;-71
2023/02/03 08:25:56;;;;;;;10.88;7.18;;;9.20;96.70;;;;;;4980660;28;20522;-70
2023/02/03 08:28:24;;;;;;;14.20;9.02;;;9.20;96.70;;;;;;4981590;28;20050;-72
2023/02/03 08:30:52;;;;;;;12.13;8.27;;;9.20;96.70;;;;;;4983842;28;20068;-71
2023/02/03 08:33:22;;;;;;;14.27;7.10;;;9.10;96.70;;;;;;4985044;28;20053;-70
2023/02/03 08:35:50;;;;;;;13.55;7.45;;;9.10;96.70;;;;;;4986164;28;20045;-71
2023/02/03 08:38:20;;;;;;;14.02;7.10;;;9.10;96.70;;;;;;4983043;28;20050;-71
2023/02/03 08:40:49;;;;;;;10.75;6.80;;;9.20;96.70;;;;;;4984684;28;20042;-72
2023/02/03 08:43:17;;;;;;;10.32;7.13;;;9.20;96.70;;;;;;4982819;28;20038;-73
2023/02/03 08:45:45;;;;;;;10.20;6.50;;;9.30;96.70;;;;;;4985108;28;20046;-72
2023/02/03 08:48:13;;;;;;;11.75;7.30;;;9.30;96.70;;;;;;4981262;28;20050;-72
2023/02/03 08:50:50;;;;;;;13.45;7.50;;;9.30;96.70;;;;;;4985878;28;20126;-72
2023/02/03 08:53:19;;;;;;;16.95;8.00;;;9.40;96.70;;;;;;4985966;28;20073;-72
2023/02/03 08:55:47;;;;;;;12.18;8.20;;;9.40;96.70;;;;;;4967948;28;20042;-72
2023/02/03 08:58:15;;;;;;;13.00;8.10;;;9.50;96.70;;;;;;4985964;28;20044;-72
2023/02/03 09:00:44;;;;;;;14.00;8.68;;;9.50;96.70;;;;;;4985333;28;20070;-71
2023/02/03 09:03:12;;;;;;;18.90;10.05;;;9.50;96.70;;;;;;4980861;28;20042;-73
2023/02/03 09:05:42;;;;;;;17.20;10.23;;;9.50;96.70;;;;;;4984331;28;20416;-72
2023/02/03 09:08:10;;;;;;;20.77;10.55;;;9.60;96.70;;;;;;4984620;28;20125;-72
2023/02/03 09:10:38;;;;;;;17.85;10.18;;;9.60;96.70;;;;;;4981601;28;20058;-72
2023/02/03 09:13:07;;;;;;;16.55;10.00;;;9.60;96.70;;;;;;4986067;28;20112;-72
2023/02/03 09:15:35;;;;;;;21.20;10.15;;;9.60;96.70;;;;;;4976251;28;20129;-71
2023/02/03 09:18:04;;;;;;;16.30;9.63;;;9.70;96.70;;;;;;4985363;28;20077;-72
2023/02/03 09:20:32;;;;;;;16.23;10.05;;;9.70;96.70;;;;;;4983599;28;20105;-71
2023/02/03 09:23:02;;;;;;;13.60;9.25;;;9.80;96.70;;;;;;4982281;28;20137;-73
2023/02/03 09:25:31;;;;;;;17.08;10.05;;;9.80;96.70;;;;;;4979494;28;20066;-72
2023/02/03 09:28:01;;;;;;;19.00;10.00;;;9.90;96.70;;;;;;4983955;28;20101;-72
2023/02/03 09:30:29;;;;;;;15.13;9.45;;;9.90;96.70;;;;;;4985460;28;20046;-71
2023/02/03 09:32:58;;;;;;;12.82;8.40;;;9.90;96.70;;;;;;4983650;28;20145;-72
2023/02/03 09:35:28;;;;;;;13.00;8.20;;;10.00;96.70;;;;;;4983318;28;20145;-73
2023/02/03 09:37:59;;;;;;;10.57;8.20;;;10.10;96.70;;;;;;4984078;28;20038;-73
2023/02/03 09:40:32;;;;;;;12.02;7.45;;;10.10;96.70;;;;;;4975025;28;20082;-74
2023/02/03 09:43:11;;;;;;;13.80;7.55;;;10.20;96.70;;;;;;4982517;28;20046;-72
2023/02/03 09:45:39;;;;;;;21.48;10.70;;;10.20;96.70;;;;;;4983185;28;20050;-72
2023/02/03 09:48:14;;;;;;;19.00;9.82;;;10.20;96.70;;;;;;4982536;28;20120;-71
2023/02/03 09:50:45;;;;;;;17.27;10.98;;;10.30;96.70;;;;;;4985252;28;20057;-72
2023/02/03 09:53:24;;;;;;;18.05;9.88;;;10.40;96.70;;;;;;4985173;28;20134;-72
2023/02/03 09:55:54;;;;;;;12.43;8.52;;;10.50;96.70;;;;;;4982708;28;20489;-72
2023/02/03 09:58:23;;;;;;;16.90;10.18;;;10.50;96.70;;;;;;4982316;28;20141;-73
2023/02/03 10:00:54;;;;;;;15.00;9.75;;;10.60;96.70;;;;;;4995653;28;20042;-72
2023/02/03 10:03:30;;;;;;;17.52;10.55;;;10.70;96.70;;;;;;4972848;28;20046;-72
2023/02/03 10:06:20;;;;;;;21.80;11.23;;;10.70;96.70;;;;;;4982398;28;20456;-72
2023/02/03 10:09:23;;;;;;;21.95;12.18;;;10.70;96.70;;;;;;4972481;28;20051;-72
2023/02/03 10:12:14;;;;;;;19.80;13.02;;;10.70;96.70;;;;;;4981752;28;20413;-71
2023/02/03 10:15:01;;;;;;;21.35;12.50;;;10.70;96.70;;;;;;4977927;28;20042;-74
2023/02/03 10:17:32;;;;;;;25.02;13.45;;;10.90;96.70;;;;;;4981980;28;20053;-71
2023/02/03 10:20:05;;;;;;;21.83;12.55;;;11.10;96.70;;;;;;4979442;28;20116;-72
2023/02/03 10:22:40;;;;;;;19.27;12.07;;;11.20;96.70;;;;;;4978392;28;20047;-72
2023/02/03 10:25:19;;;;;;;18.27;10.30;;;11.30;96.70;;;;;;4959211;28;20046;-72
2023/02/03 10:27:50;;;;;;;15.20;10.13;;;11.50;96.70;;;;;;4997537;28;20074;-74
2023/02/03 10:30:20;;;;;;;15.85;10.65;;;11.50;96.70;;;;;;4998101;28;20057;-74
2023/02/03 10:32:53;;;;;;;19.77;11.85;;;11.60;96.70;;;;;;4983702;28;20058;-72
2023/02/03 10:35:27;;;;;;;15.93;11.73;;;11.70;96.70;;;;;;4979199;28;20034;-71
2023/02/03 10:37:58;;;;;;;21.90;12.07;;;11.80;96.70;;;;;;4982230;28;20042;-70
2023/02/03 10:40:27;;;;;;;16.30;11.35;;;11.90;96.70;;;;;;4975376;28;20046;-71
2023/02/03 10:45:45;;;;;;;19.33;12.50;;;12.10;96.70;;;;;;4983749;28;20049;-72
2023/02/03 10:48:16;;;;;;;19.98;12.13;;;12.10;96.70;;;;;;4982806;28;20531;-71
2023/02/03 10:50:49;;;;;;;24.48;12.95;;;12.20;96.70;;;;;;4984021;28;20050;-71
2023/02/03 10:53:23;;;;;;;17.50;11.63;;;12.30;96.70;;;;;;4983777;28;20042;-71
2023/02/03 10:56:01;;;;;;;19.48;12.93;;;12.20;96.70;;;;;;4966134;28;20050;-71
2023/02/03 10:58:33;;;;;;;24.67;12.50;;;12.40;96.70;;;;;;4980956;28;20054;-71
2023/02/03 11:01:07;;;;;;;17.40;11.70;;;12.70;96.70;;;;;;4983764;28;20081;-71
2023/02/03 11:03:36;;;;;;;14.82;10.15;;;12.80;96.70;;;;;;4981872;28;20057;-71
2023/02/03 11:06:07;;;;;;;13.93;10.18;;;12.80;96.70;;;;;;4983254;28;20054;-71
2023/02/03 11:08:37;;;;;;;14.75;10.40;;;12.80;96.70;;;;;;4981366;28;20520;-72
2023/02/03 11:11:06;;;;;;;15.45;10.60;;;12.80;96.70;;;;;;4974558;28;20061;-71
2023/02/03 11:13:36;;;;;;;13.98;9.38;;;12.80;96.70;;;;;;4983526;28;20130;-71
2023/02/03 11:16:06;;;;;;;14.10;10.35;;;12.80;96.70;;;;;;4984153;28;20140;-71
2023/02/03 11:18:54;;;;;;;14.60;10.15;;;12.70;96.70;;;;;;4982370;28;20058;-71
2023/02/03 11:21:25;;;;;;;15.35;8.55;;;12.80;96.70;;;;;;4991187;28;20050;-71
2023/02/03 11:23:56;;;;;;;13.02;8.73;;;12.80;96.70;;;;;;4981829;28;20125;-71
2023/02/03 11:26:28;;;;;;;14.55;8.43;;;13.00;96.70;;;;;;4981185;28;20058;-71
2023/02/03 11:28:59;;;;;;;12.02;7.93;;;13.00;96.70;;;;;;4981803;28;20053;-71
2023/02/03 11:31:30;;;;;;;13.85;8.63;;;13.00;96.70;;;;;;4958111;28;20081;-71
2023/02/03 11:34:01;;;;;;;12.68;9.27;;;13.10;96.70;;;;;;4982040;28;20105;-71
2023/02/03 11:36:31;;;;;;;12.38;9.10;;;13.20;96.70;;;;;;4981505;28;20050;-71
2023/02/03 11:39:35;;;;;;;11.75;8.32;;;13.20;96.70;;;;;;4982847;28;20233;-71
2023/02/03 11:42:21;;;;;;;13.10;9.18;;;13.10;96.70;;;;;;4959540;28;20112;-71
2023/02/03 11:44:51;;;;;;;14.35;8.88;;;13.20;96.70;;;;;;4980673;28;20054;-71
2023/02/03 11:47:20;;;;;;;12.07;8.75;;;13.20;96.70;;;;;;4975619;28;20050;-72
2023/02/03 11:50:18;;;;;;;13.95;8.80;;;13.50;96.70;;;;;;4982093;28;20050;-71
2023/02/03 11:53:28;;;;;;;11.98;8.68;;;13.90;96.70;;;;;;4982377;28;20120;-71
2023/02/03 11:56:17;;;;;;;12.25;8.00;;;14.10;96.70;;;;;;4976871;28;20062;-71
2023/02/03 11:59:07;;;;;;;14.95;9.10;;;14.10;96.70;;;;;;4979848;28;20039;-72
2023/02/03 12:02:03;;;;;;;34.40;23.23;;;14.30;96.70;;;;;;4979063;28;20573;-71
2023/02/03 12:04:54;;;;;;;14.00;9.02;;;14.50;96.70;;;;;;4975212;28;20137;-72
2023/02/03 12:07:47;;;;;;;13.52;8.63;;;14.50;96.70;;;;;;4982800;28;20065;-71
2023/02/03 12:10:32;;;;;;;13.43;9.52;;;14.70;96.70;;;;;;4978099;28;20066;-71
2023/02/03 12:13:09;;;;;;;12.40;8.63;;;14.60;96.70;;;;;;4985093;28;20054;-72
2023/02/03 12:15:48;;;;;;;;;;;14.60;96.70;;;;;;4987412;28;20046;-72
2023/02/03 12:18:32;;;;;;;14.13;8.75;;;14.50;96.70;;;;;;4985580;28;20328;-72
2023/02/03 12:21:18;;;;;;;14.00;8.27;;;14.40;96.70;;;;;;4986900;28;20052;-72
2023/02/03 12:23:54;;;;;;;13.32;7.43;;;14.40;96.70;;;;;;4979709;28;20075;-72
2023/02/03 12:26:25;;;;;;;13.02;6.35;;;14.30;96.70;;;;;;4984998;28;20046;-71
2023/02/03 12:29:02;;;;;;;9.50;6.20;;;14.20;96.70;;;;;;4986742;28;20050;-72
2023/02/03 12:31:37;;;;;;;12.57;6.43;;;14.30;96.70;;;;;;4986669;28;20500;-71
2023/02/03 12:34:15;;;;;;;9.65;6.35;;;14.60;96.70;;;;;;4984353;28;20046;-72
2023/02/03 12:36:49;;;;;;;14.27;7.75;;;14.90;96.70;;;;;;4986052;28;20049;-72
2023/02/03 12:39:25;;;;;;;9.93;6.80;;;15.10;96.70;;;;;;4984892;28;20041;-72
2023/02/03 12:42:00;;;;;;;10.55;6.95;;;15.10;96.70;;;;;;4984434;28;20054;-72
2023/02/03 12:44:34;;;;;;;9.43;5.10;;;15.30;96.70;;;;;;4984675;28;20119;-72
2023/02/03 12:47:06;;;;;;;10.95;7.25;;;15.40;96.70;;;;;;4984556;28;20057;-72
2023/02/03 12:49:40;;;;;;;7.55;5.82;;;15.40;96.70;;;;;;4985406;28;20046;-72
2023/02/03 12:52:17;;;;;;;8.85;4.65;;;15.20;96.70;;;;;;4986050;28;20121;-72
2023/02/03 12:54:51;;;;;;;7.40;4.22;;;15.00;96.70;;;;;;4984248;28;20050;-72
2023/02/03 12:57:24;;;;;;;8.35;4.97;;;14.80;96.70;;;;;;4984520;28;20504;-71
2023/02/03 13:00:07;;;;;;;7.30;4.75;;;14.60;96.70;;;;;;4984851;28;20091;-72
2023/02/03 13:02:46;;;;;;;12.18;4.05;;;14.60;96.70;;;;;;4984004;28;20564;-72
2023/02/03 13:05:23;;;;;;;9.27;4.43;;;14.60;96.70;;;;;;4984228;28;20050;-72
2023/02/03 13:07:58;;;;;;;15.57;7.63;;;14.40;96.70;;;;;;4985155;28;20105;-71
2023/02/03 13:10:33;;;;;;;14.50;6.72;;;14.30;96.70;;;;;;4983787;28;20054;-71
2023/02/03 13:13:06;;;;;;;12.43;6.68;;;14.10;96.70;;;;;;4984385;28;20046;-71